Time,TemperatureF,DewpointF,PressureIn,WindDirection,WindDirectionDegrees,WindSpeedMPH,WindSpeedGustMPH,Humidity,HourlyPrecipIn,Conditions,Clouds,dailyrainin,SoftwareType,DateUTC
2013-06-05 00:10:00,79.0,75.0,30.00,SE,141,0.0,-999.0,88,-99.99,,,0.00,weatherlink.com 1.10,2013-06-05 04:10:00,
2013-06-05 00:25:00,78.8,75.0,30.01,SE,141,0.0,-999.0,89,-99.99,,,0.00,weatherlink.com 1.10,2013-06-05 04:25:00,
2013-06-05 00:40:00,78.7,76.0,30.00,SE,136,0.0,-999.0,90,-99.99,,,0.00,weatherlink.com 1.10,2013-06-05 04:40:00,
2013-06-05 00:55:00,78.8,76.0,30.00,SSE,150,1.0,-999.0,91,-99.99,,,0.00,weatherlink.com 1.10,2013-06-05 04:55:00,
2013-06-05 01:10:00,79.0,76.0,30.00,SSE,147,1.0,-999.0,90,-99.99,,,0.00,weatherlink.com 1.10,2013-06-05 05:10:00,
2013-06-05 01:25:00,79.1,76.0,30.00,SSW,202,0.0,-999.0,90,-99.99,,,0.00,weatherlink.com 1.10,2013-06-05 05:25:00,
2013-06-05 01:40:00,79.3,76.0,29.99,SE,146,0.0,-999.0,88,-99.99,,,0.00,weatherlink.com 1.10,2013-06-05 05:40:00,
2013-06-05 01:55:00,79.4,75.0,29.98,East,100,2.0,-999.0,87,-99.99,,,0.00,weatherlink.com 1.10,2013-06-05 05:55:00,
2013-06-05 02:10:00,79.1,75.0,29.98,ESE,113,2.0,-999.0,87,-99.99,,,0.00,weatherlink.com 1.10,2013-06-05 06:10:00,
2013-06-05 02:25:00,79.0,75.0,29.97,ESE,122,1.0,-999.0,87,-99.99,,,0.00,weatherlink.com 1.10,2013-06-05 06:25:00,
2013-06-05 02:40:00,79.0,75.0,29.96,SE,136,1.0,-999.0,87,-99.99,,,0.00,weatherlink.com 1.10,2013-06-05 06:40:00,
2013-06-05 02:55:00,79.5,75.0,29.95,SE,140,1.0,-999.0,87,-99.99,,,0.00,weatherlink.com 1.10,2013-06-05 06:55:00,
2013-06-05 03:10:00,79.5,75.0,29.95,SE,130,0.0,-999.0,87,-99.99,,,0.00,weatherlink.com 1.10,2013-06-05 07:10:00,
2013-06-05 03:25:00,79.5,75.0,29.95,SSE,150,0.0,-999.0,87,-99.99,,,0.00,weatherlink.com 1.10,2013-06-05 07:25:00,
2013-06-05 03:40:00,79.5,75.0,29.95,SE,136,0.0,-999.0,87,-99.99,,,0.00,weatherlink.com 1.10,2013-06-05 07:40:00,
2013-06-05 03:55:00,79.6,75.0,29.95,ESE,121,0.0,-999.0,86,-99.99,,,0.00,weatherlink.com 1.10,2013-06-05 07:55:00,
2013-06-05 04:26:00,79.2,75.0,29.94,SSE,150,0.0,-999.0,87,-99.99,,,0.00,weatherlink.com 1.10,2013-06-05 08:26:00,
2013-06-05 04:41:00,79.1,75.0,29.94,ESE,121,0.0,-999.0,88,-99.99,,,0.00,weatherlink.com 1.10,2013-06-05 08:41:00,
2013-06-05 04:56:00,78.9,75.0,29.93,SE,140,0.0,-999.0,88,-99.99,,,0.00,weatherlink.com 1.10,2013-06-05 08:56:00,
2013-06-05 05:11:00,78.7,75.0,29.93,East,94,0.0,-999.0,89,-99.99,,,0.00,weatherlink.com 1.10,2013-06-05 09:11:00,
2013-06-05 05:25:00,78.6,75.0,29.92,ESE,107,2.0,-999.0,89,-99.99,,,0.00,weatherlink.com 1.10,2013-06-05 09:25:00,
2013-06-05 05:41:00,78.6,75.0,29.92,East,91,1.0,-999.0,89,-99.99,,,0.00,weatherlink.com 1.10,2013-06-05 09:41:00,
2013-06-05 05:56:00,78.7,76.0,29.93,SE,135,0.0,-999.0,90,-99.99,,,0.00,weatherlink.com 1.10,2013-06-05 09:56:00,
2013-06-05 06:10:00,78.7,76.0,29.93,ESE,107,1.0,-999.0,91,-99.99,,,0.00,weatherlink.com 1.10,2013-06-05 10:10:00,
2013-06-05 06:26:00,78.7,76.0,29.94,SSE,159,0.0,-999.0,90,-99.99,,,0.00,weatherlink.com 1.10,2013-06-05 10:26:00,
2013-06-05 06:41:00,78.8,75.0,29.94,SE,133,0.0,-999.0,89,-99.99,,,0.00,weatherlink.com 1.10,2013-06-05 10:41:00,
2013-06-05 06:56:00,78.8,76.0,29.93,SE,135,0.0,-999.0,90,-99.99,,,0.01,weatherlink.com 1.10,2013-06-05 10:56:00,
2013-06-05 07:26:00,78.7,76.0,29.94,East,84,2.0,-999.0,90,-99.99,,,0.01,weatherlink.com 1.10,2013-06-05 11:26:00,
2013-06-05 07:41:00,78.9,76.0,29.95,SSE,149,0.0,-999.0,90,-99.99,,,0.01,weatherlink.com 1.10,2013-06-05 11:41:00,
2013-06-05 07:56:00,79.1,76.0,29.95,SSE,161,0.0,-999.0,90,-99.99,,,0.01,weatherlink.com 1.10,2013-06-05 11:56:00,
2013-06-05 08:11:00,79.4,76.0,29.96,ENE,77,2.0,-999.0,90,-99.99,,,0.01,weatherlink.com 1.10,2013-06-05 12:11:00,
2013-06-05 08:26:00,79.7,77.0,29.96,SE,130,0.0,-999.0,90,-99.99,,,0.01,weatherlink.com 1.10,2013-06-05 12:26:00,
2013-06-05 08:41:00,79.9,76.0,29.96,SE,142,1.0,-999.0,88,-99.99,,,0.01,weatherlink.com 1.10,2013-06-05 12:41:00,
2013-06-05 08:56:00,80.2,76.0,29.97,SE,130,0.0,-999.0,87,-99.99,,,0.01,weatherlink.com 1.10,2013-06-05 12:56:00,
2013-06-05 09:11:00,80.5,76.0,29.97,ESE,105,1.0,-999.0,87,-99.99,,,0.01,weatherlink.com 1.10,2013-06-05 13:11:00,
2013-06-05 09:41:00,81.0,77.0,29.97,ESE,111,1.0,-999.0,88,-99.99,,,0.01,weatherlink.com 1.10,2013-06-05 13:41:00,
2013-06-05 09:56:00,81.3,77.0,29.97,SE,141,0.0,-999.0,86,-99.99,,,0.01,weatherlink.com 1.10,2013-06-05 13:56:00,
2013-06-05 10:12:00,81.8,77.0,29.97,East,95,4.0,-999.0,86,-99.99,,,0.01,weatherlink.com 1.10,2013-06-05 14:12:00,
2013-06-05 10:26:00,82.2,78.0,29.97,SE,133,0.0,-999.0,87,-99.99,,,0.01,weatherlink.com 1.10,2013-06-05 14:26:00,
2013-06-05 10:41:00,82.5,77.0,29.97,SSE,161,4.0,-999.0,83,-99.99,,,0.01,weatherlink.com 1.10,2013-06-05 14:41:00,
2013-06-05 10:56:00,82.7,77.0,29.98,SSW,192,1.0,-999.0,82,-99.99,,,0.01,weatherlink.com 1.10,2013-06-05 14:56:00,
2013-06-05 11:11:00,82.7,76.0,29.98,East,100,4.0,-999.0,81,-99.99,,,0.01,weatherlink.com 1.10,2013-06-05 15:11:00,
2013-06-05 11:26:00,82.8,77.0,29.98,East,88,5.0,-999.0,82,-99.99,,,0.01,weatherlink.com 1.10,2013-06-05 15:26:00,
2013-06-05 11:56:00,82.5,77.0,29.98,ESE,115,1.0,-999.0,82,-99.99,,,0.01,weatherlink.com 1.10,2013-06-05 15:56:00,
2013-06-05 12:11:00,82.3,77.0,29.98,SE,143,0.0,-999.0,83,-99.99,,,0.01,weatherlink.com 1.10,2013-06-05 16:11:00,
2013-06-05 12:26:00,81.3,77.0,29.98,SE,136,1.0,-999.0,86,-99.99,,,0.03,weatherlink.com 1.10,2013-06-05 16:26:00,
2013-06-05 12:41:00,80.5,77.0,29.98,South,169,0.0,-999.0,89,-99.99,,,0.04,weatherlink.com 1.10,2013-06-05 16:41:00,
2013-06-05 12:57:00,80.5,77.0,29.97,ESE,105,0.0,-999.0,89,-99.99,,,0.04,weatherlink.com 1.10,2013-06-05 16:57:00,
2013-06-05 13:12:00,80.8,78.0,29.96,East,91,0.0,-999.0,90,-99.99,,,0.04,weatherlink.com 1.10,2013-06-05 17:12:00,
2013-06-05 13:27:00,81.5,78.0,29.96,East,80,0.0,-999.0,89,-99.99,,,0.04,weatherlink.com 1.10,2013-06-05 17:27:00,
2013-06-05 13:41:00,82.1,78.0,29.95,SE,146,1.0,-999.0,87,-99.99,,,0.04,weatherlink.com 1.10,2013-06-05 17:41:00,
2013-06-05 13:56:00,82.9,78.0,29.95,South,171,0.0,-999.0,85,-99.99,,,0.04,weatherlink.com 1.10,2013-06-05 17:56:00,
2013-06-05 14:11:00,83.6,78.0,29.95,SSE,149,0.0,-999.0,82,-99.99,,,0.04,weatherlink.com 1.10,2013-06-05 18:11:00,
2013-06-05 14:41:00,84.2,77.0,29.95,East,84,5.0,-999.0,78,-99.99,,,0.04,weatherlink.com 1.10,2013-06-05 18:41:00,
2013-06-05 15:12:00,83.9,76.0,29.94,ESE,105,1.0,-999.0,78,-99.99,,,0.04,weatherlink.com 1.10,2013-06-05 19:12:00,
2013-06-05 15:27:00,84.2,77.0,29.94,SSE,165,6.0,-999.0,79,-99.99,,,0.04,weatherlink.com 1.10,2013-06-05 19:27:00,
2013-06-05 15:42:00,84.0,77.0,29.94,ESE,110,6.0,-999.0,79,-99.99,,,0.04,weatherlink.com 1.10,2013-06-05 19:42:00,
2013-06-05 15:56:00,83.8,77.0,29.93,ENE,67,1.0,-999.0,80,-99.99,,,0.04,weatherlink.com 1.10,2013-06-05 19:56:00,
2013-06-05 16:11:00,84.0,77.0,29.92,ESE,106,4.0,-999.0,79,-99.99,,,0.04,weatherlink.com 1.10,2013-06-05 20:11:00,
2013-06-05 16:26:00,83.8,77.0,29.92,SE,130,2.0,-999.0,81,-99.99,,,0.04,weatherlink.com 1.10,2013-06-05 20:26:00,
2013-06-05 16:41:00,84.1,77.0,29.92,East,84,3.0,-999.0,80,-99.99,,,0.04,weatherlink.com 1.10,2013-06-05 20:41:00,
2013-06-05 16:56:00,83.4,77.0,29.91,East,79,1.0,-999.0,82,-99.99,,,0.04,weatherlink.com 1.10,2013-06-05 20:56:00,
2013-06-05 17:11:00,83.1,78.0,29.90,East,81,3.0,-999.0,83,-99.99,,,0.04,weatherlink.com 1.10,2013-06-05 21:11:00,
2013-06-05 17:26:00,82.9,77.0,29.90,East,82,0.0,-999.0,83,-99.99,,,0.04,weatherlink.com 1.10,2013-06-05 21:26:00,
2013-06-05 17:41:00,82.7,77.0,29.90,East,82,3.0,-999.0,83,-99.99,,,0.04,weatherlink.com 1.10,2013-06-05 21:41:00,
2013-06-05 17:56:00,82.6,77.0,29.89,SE,126,4.0,-999.0,84,-99.99,,,0.04,weatherlink.com 1.10,2013-06-05 21:56:00,
2013-06-05 18:11:00,82.1,77.0,29.89,ESE,115,0.0,-999.0,85,-99.99,,,0.04,weatherlink.com 1.10,2013-06-05 22:11:00,
2013-06-05 18:26:00,81.9,77.0,29.89,SE,135,0.0,-999.0,85,-99.99,,,0.04,weatherlink.com 1.10,2013-06-05 22:26:00,
2013-06-05 18:41:00,81.8,77.0,29.89,East,88,1.0,-999.0,85,-99.99,,,0.04,weatherlink.com 1.10,2013-06-05 22:41:00,
2013-06-05 18:56:00,81.4,77.0,29.89,East,98,5.0,-999.0,86,-99.99,,,0.04,weatherlink.com 1.10,2013-06-05 22:56:00,
2013-06-05 19:11:00,80.8,77.0,29.89,ESE,106,4.0,-999.0,87,-99.99,,,0.04,weatherlink.com 1.10,2013-06-05 23:11:00,
2013-06-05 19:26:00,80.8,77.0,29.89,East,88,2.0,-999.0,88,-99.99,,,0.04,weatherlink.com 1.10,2013-06-05 23:26:00,
2013-06-05 19:41:00,80.7,77.0,29.89,ESE,104,2.0,-999.0,89,-99.99,,,0.04,weatherlink.com 1.10,2013-06-05 23:41:00,
2013-06-05 19:56:00,80.9,77.0,29.89,East,80,3.0,-999.0,88,-99.99,,,0.04,weatherlink.com 1.10,2013-06-05 23:56:00,
2013-06-05 20:12:00,80.8,77.0,29.89,SE,141,4.0,-999.0,88,-99.99,,,0.04,weatherlink.com 1.10,2013-06-06 00:12:00,
2013-06-05 20:26:00,80.8,77.0,29.90,ESE,117,6.0,-999.0,88,-99.99,,,0.04,weatherlink.com 1.10,2013-06-06 00:26:00,
2013-06-05 20:57:00,80.7,77.0,29.90,SW,219,2.0,-999.0,88,-99.99,,,0.04,weatherlink.com 1.10,2013-06-06 00:57:00,
2013-06-05 21:12:00,80.6,77.0,29.90,SSE,161,0.0,-999.0,89,-99.99,,,0.04,weatherlink.com 1.10,2013-06-06 01:12:00,
2013-06-05 21:26:00,80.7,77.0,29.91,East,84,2.0,-999.0,89,-99.99,,,0.04,weatherlink.com 1.10,2013-06-06 01:26:00,
2013-06-05 21:57:00,80.6,77.0,29.91,SSE,160,1.0,-999.0,89,-99.99,,,0.04,weatherlink.com 1.10,2013-06-06 01:57:00,
2013-06-05 22:27:00,80.8,77.0,29.91,NE,43,3.0,-999.0,88,-99.99,,,0.04,weatherlink.com 1.10,2013-06-06 02:27:00,
2013-06-05 22:41:00,80.7,77.0,29.91,South,171,2.0,-999.0,88,-99.99,,,0.04,weatherlink.com 1.10,2013-06-06 02:41:00,
2013-06-05 22:57:00,80.7,77.0,29.91,East,88,3.0,-999.0,88,-99.99,,,0.04,weatherlink.com 1.10,2013-06-06 02:57:00,
2013-06-05 23:12:00,80.6,77.0,29.90,ENE,76,1.0,-999.0,88,-99.99,,,0.04,weatherlink.com 1.10,2013-06-06 03:12:00,
2013-06-05 23:27:00,80.6,77.0,29.90,SE,134,0.0,-999.0,89,-99.99,,,0.04,weatherlink.com 1.10,2013-06-06 03:27:00,
2013-06-05 23:42:00,80.6,77.0,29.90,East,100,4.0,-999.0,89,-99.99,,,0.04,weatherlink.com 1.10,2013-06-06 03:42:00,
2013-06-05 23:57:00,80.6,77.0,29.89,South,169,2.0,-999.0,89,-99.99,,,0.04,weatherlink.com 1.10,2013-06-06 03:57:00,